Time;durP1;ratioP1;P1;durP2;ratioP2;P2;SDS_P1;SDS_P2;PMS_P1;PMS_P2;Temp;Humidity;BMP_temperature;BMP_pressure;BME280_temperature;BME280_humidity;BME280_pressure;Samples;Min_cycle;Max_cycle;Signal;HPM_P1;HPM_P2
2023/04/18 00:00:26;;;;;;;6.28;5.68;;;;;;;8.17;89.15;99134.44;4142829;28;20209;-50
2023/04/18 00:02:28;;;;;;;7.47;6.88;;;;;;;8.19;89.09;99136.91;4137476;28;20695;-49
2023/04/18 00:04:32;;;;;;;7.55;6.78;;;;;;;8.08;89.63;99134.91;4134515;28;20198;-49
2023/04/18 00:06:34;;;;;;;7.60;6.03;;;;;;;8.02;89.72;99133.06;4137840;28;20245;-50
2023/04/18 00:08:36;;;;;;;6.55;6.05;;;;;;;8.16;90.50;99134.63;4138414;28;20260;-49
2023/04/18 00:10:38;;;;;;;6.10;5.60;;;;;;;8.15;89.87;99130.25;4138706;28;20209;-49
2023/04/18 00:12:39;;;;;;;8.65;6.43;;;;;;;8.01;88.49;99123.22;4137581;28;20245;-49
2023/04/18 00:14:42;;;;;;;6.88;6.35;;;;;;;7.96;89.29;99126.56;4144465;28;20221;-49
2023/04/18 00:16:45;;;;;;;5.78;5.28;;;;;;;7.99;89.47;99125.28;4127662;28;20256;-49
2023/04/18 00:18:47;;;;;;;6.82;6.22;;;;;;;7.94;88.91;99125.09;4138281;28;20234;-50
2023/04/18 00:20:48;;;;;;;9.18;8.13;;;;;;;7.84;89.50;99122.03;4136246;28;20210;-49
2023/04/18 00:22:52;;;;;;;7.18;6.57;;;;;;;7.84;89.79;99122.03;4134138;28;20241;-49
2023/04/18 00:24:53;;;;;;;6.80;6.20;;;;;;;7.70;89.71;99126.69;4136776;28;20201;-49
2023/04/18 00:26:55;;;;;;;10.75;6.28;;;;;;;7.73;89.79;99122.72;4138229;28;20213;-49
2023/04/18 00:28:57;;;;;;;6.88;6.35;;;;;;;7.64;89.87;99113.13;4134267;28;20233;-50
2023/04/18 00:30:59;;;;;;;7.25;6.65;;;;;;;7.65;90.06;99117.50;4142966;28;20256;-49
2023/04/18 00:33:03;;;;;;;9.23;7.13;;;;;;;7.59;89.92;99115.66;4143994;28;20247;-50
2023/04/18 00:35:05;;;;;;;7.78;7.07;;;;;;;7.52;90.54;99123.03;4136032;28;20256;-50
2023/04/18 00:37:07;;;;;;;6.43;5.82;;;;;;;7.58;90.96;99119.44;4139626;28;20295;-49
2023/04/18 00:39:08;;;;;;;6.38;5.82;;;;;;;7.50;90.90;99131.41;4137652;28;20327;-50
2023/04/18 00:41:10;;;;;;;7.38;6.63;;;;;;;7.53;90.56;99119.25;4143971;28;20231;-50
2023/04/18 00:43:13;;;;;;;6.75;6.32;;;;;;;7.40;91.13;99113.84;4143722;28;21088;-49
2023/04/18 00:45:15;;;;;;;7.50;6.80;;;;;;;7.34;91.61;99117.44;4136639;28;20252;-51
2023/04/18 00:47:16;;;;;;;8.15;7.45;;;;;;;7.33;91.56;99113.03;4143990;28;20256;-50
2023/04/18 00:49:18;;;;;;;7.30;6.70;;;;;;;7.51;92.58;99116.75;4144785;28;20925;-49
2023/04/18 00:51:20;;;;;;;7.97;6.72;;;;;;;7.34;91.37;99118.28;4126888;28;20210;-50
2023/04/18 00:53:22;;;;;;;7.40;6.70;;;;;;;7.48;91.97;99121.81;4126353;28;20575;-51
2023/04/18 00:55:24;;;;;;;7.13;6.53;;;;;;;7.48;92.09;99116.34;4122061;28;20230;-50
2023/04/18 00:57:26;;;;;;;10.73;5.25;;;;;;;7.45;91.97;99120.34;4142617;28;20214;-49
2023/04/18 00:59:28;;;;;;;7.55;6.22;;;;;;;7.46;93.23;99113.00;4140709;28;20245;-51
2023/04/18 01:01:29;;;;;;;6.47;5.85;;;;;;;7.45;93.55;99100.44;4134748;28;20321;-50
2023/04/18 01:03:31;;;;;;;7.15;6.55;;;;;;;7.40;94.29;99108.41;4136739;28;20296;-51
2023/04/18 01:05:35;;;;;;;6.63;6.07;;;;;;;7.42;94.40;99111.78;4138264;28;20211;-49
2023/04/18 01:07:39;;;;;;;6.18;5.68;;;;;;;7.37;94.70;99109.66;4132754;28;20951;-50
2023/04/18 01:09:41;;;;;;;6.20;5.65;;;;;;;7.32;95.21;99103.22;4134742;28;20592;-50
2023/04/18 01:11:42;;;;;;;6.20;5.65;;;;;;;7.27;95.82;99098.41;4142641;28;20636;-50
2023/04/18 01:14:04;;;;;;;7.18;6.65;;;;;;;7.20;95.70;99096.75;4137427;28;20739;-50
2023/04/18 01:16:06;;;;;;;6.07;5.57;;;;;;;7.19;96.14;99089.63;4146782;28;20444;-50
2023/04/18 01:18:09;;;;;;;6.95;6.35;;;;;;;7.26;96.26;99090.44;4136950;28;20228;-50
2023/04/18 01:20:12;;;;;;;8.23;7.47;;;;;;;7.14;96.20;99093.00;4141818;28;20206;-50
2023/04/18 01:22:14;;;;;;;7.05;6.38;;;;;;;7.13;96.04;99085.91;4140279;28;20284;-50
2023/04/18 01:24:16;;;;;;;9.23;5.55;;;;;;;7.09;96.19;99083.84;4139635;28;20303;-51
2023/04/18 01:26:18;;;;;;;6.68;6.18;;;;;;;7.10;96.67;99096.38;4142611;28;20205;-51
2023/04/18 01:28:21;;;;;;;5.95;5.50;;;;;;;6.98;96.60;99082.59;4146159;28;20279;-50
2023/04/18 01:30:23;;;;;;;6.35;5.80;;;;;;;6.94;96.69;99080.50;4130150;28;20250;-49
2023/04/18 01:32:25;;;;;;;5.97;5.53;;;;;;;6.93;97.06;99078.84;4144704;28;20649;-49
2023/04/18 01:34:26;;;;;;;8.77;6.45;;;;;;;6.90;97.13;99079.28;4138124;28;20304;-50
2023/04/18 01:36:28;;;;;;;6.75;6.13;;;;;;;6.87;96.87;99077.81;4138161;28;20251;-49
2023/04/18 01:38:30;;;;;;;6.53;5.82;;;;;;;6.81;96.75;99075.09;4139100;28;20948;-49
2023/04/18 01:40:32;;;;;;;8.15;5.28;;;;;;;6.73;97.60;99070.72;4146554;28;20222;-50
2023/04/18 01:42:33;;;;;;;6.13;5.72;;;;;;;6.67;97.69;99073.44;4121149;28;20214;-50
2023/04/18 01:44:35;;;;;;;5.60;5.13;;;;;;;6.63;97.81;99072.22;4137300;28;20810;-50
2023/04/18 01:46:37;;;;;;;6.63;6.03;;;;;;;6.58;97.85;99069.28;4146132;28;20255;-50
2023/04/18 01:48:39;;;;;;;8.05;7.35;;;;;;;6.57;98.01;99068.44;4136280;28;20221;-50
2023/04/18 01:50:41;;;;;;;6.82;6.13;;;;;;;6.57;98.00;99064.91;4123994;28;20222;-50
2023/04/18 01:52:42;;;;;;;5.95;5.40;;;;;;;6.58;98.58;99069.28;4136977;28;20201;-50
2023/04/18 01:54:44;;;;;;;7.00;6.40;;;;;;;6.57;98.33;99067.63;4119680;28;20476;-50
2023/04/18 01:56:46;;;;;;;6.93;5.80;;;;;;;6.57;98.24;99064.91;4126706;28;20297;-51
2023/04/18 01:58:48;;;;;;;6.05;5.45;;;;;;;6.54;98.41;99059.88;4141386;28;20686;-49
2023/04/18 02:00:53;;;;;;;6.40;5.88;;;;;;;6.52;98.43;99064.69;4146099;28;20240;-51
2023/04/18 02:02:57;;;;;;;6.35;5.75;;;;;;;6.46;98.19;99060.94;4136663;28;20253;-52
2023/04/18 02:05:00;;;;;;;8.10;6.80;;;;;;;6.42;98.94;99056.97;4144985;28;20620;-50
2023/04/18 02:07:02;;;;;;;6.65;5.85;;;;;;;6.43;98.74;99060.53;4138749;28;20253;-51
2023/04/18 02:09:03;;;;;;;7.47;6.97;;;;;;;6.39;98.81;99059.25;4145918;28;20276;-50
2023/04/18 02:11:05;;;;;;;6.57;6.03;;;;;;;6.39;98.78;99064.69;4134976;28;20584;-50
2023/04/18 02:13:07;;;;;;;6.95;6.18;;;;;;;6.29;98.20;99059.69;4139503;28;20208;-50
2023/04/18 02:15:09;;;;;;;5.93;5.43;;;;;;;6.28;98.88;99068.06;4145517;28;20229;-50
2023/04/18 02:17:11;;;;;;;7.35;6.15;;;;;;;6.23;99.08;99059.69;4138245;28;21085;-50
2023/04/18 02:19:13;;;;;;;6.78;5.50;;;;;;;6.27;99.65;99066.38;4142128;28;20220;-50
2023/04/18 02:21:15;;;;;;;6.85;6.35;;;;;;;6.30;99.36;99055.09;4138204;28;20380;-50
2023/04/18 02:23:17;;;;;;;6.55;6.05;;;;;;;6.21;98.91;99062.63;4138319;28;20213;-50
2023/04/18 02:25:22;;;;;;;6.85;6.10;;;;;;;6.26;99.33;99064.69;4153556;28;20208;-50
2023/04/18 02:27:24;;;;;;;7.60;5.95;;;;;;;6.17;99.28;99064.06;4139248;28;20272;-49
2023/04/18 02:29:26;;;;;;;6.43;5.93;;;;;;;6.13;99.46;99059.25;4145840;28;20217;-49
2023/04/18 02:31:28;;;;;;;5.80;5.30;;;;;;;6.11;99.50;99066.81;4141233;28;20275;-49
2023/04/18 02:33:30;;;;;;;6.75;6.20;;;;;;;6.05;99.66;99062.19;4146511;28;20661;-49
2023/04/18 02:35:32;;;;;;;8.38;6.10;;;;;;;6.03;99.67;99058.88;4122890;28;20296;-50
2023/04/18 02:37:33;;;;;;;5.93;5.43;;;;;;;6.02;99.58;99062.63;4128089;28;20238;-50
2023/04/18 02:39:35;;;;;;;6.03;5.53;;;;;;;5.97;99.94;99059.69;4119689;28;20214;-50
2023/04/18 02:41:39;;;;;;;7.05;6.45;;;;;;;5.95;100.00;99056.34;4138055;28;20264;-50
2023/04/18 02:43:41;;;;;;;7.18;6.68;;;;;;;5.95;99.83;99057.16;4135967;28;20704;-49
2023/04/18 02:45:43;;;;;;;6.70;6.10;;;;;;;5.90;100.00;99058.84;4137782;28;20201;-51
2023/04/18 02:47:45;;;;;;;6.95;6.35;;;;;;;5.90;100.00;99053.41;4138103;28;20228;-50
2023/04/18 02:49:56;;;;;;;7.28;6.75;;;;;;;5.90;100.00;99059.66;4140117;28;20201;-50
2023/04/18 02:51:58;;;;;;;8.55;6.55;;;;;;;5.81;100.00;99057.34;4136193;28;20214;-50
2023/04/18 02:54:00;;;;;;;7.05;6.45;;;;;;;5.78;100.00;99065.91;4138381;28;20697;-50
2023/04/18 02:56:01;;;;;;;7.63;7.13;;;;;;;5.68;100.00;99065.44;4138369;28;20584;-49
2023/04/18 02:58:03;;;;;;;8.40;7.15;;;;;;;5.49;100.00;99063.53;4128634;28;20233;-49
2023/04/18 03:00:07;;;;;;;6.75;6.28;;;;;;;5.43;100.00;99058.94;4139944;28;20267;-50
2023/04/18 03:02:08;;;;;;;8.68;7.97;;;;;;;5.45;100.00;99056.84;4143554;28;20308;-50
2023/04/18 03:04:11;;;;;;;7.97;7.38;;;;;;;5.49;100.00;99058.13;4141246;28;21146;-49
2023/04/18 03:06:13;;;;;;;8.57;7.78;;;;;;;5.37;100.00;99062.44;4136741;28;20646;-50
2023/04/18 03:08:15;;;;;;;14.13;8.30;;;;;;;5.38;100.00;99059.53;4144910;28;20232;-49
2023/04/18 03:10:17;;;;;;;7.32;6.72;;;;;;;5.36;100.00;99056.19;4139123;28;20205;-50
2023/04/18 03:12:18;;;;;;;8.32;7.63;;;;;;;5.40;100.00;99062.03;4136055;28;20225;-49
2023/04/18 03:14:20;;;;;;;8.75;8.05;;;;;;;5.30;100.00;99058.88;4127996;28;20249;-49
2023/04/18 03:16:22;;;;;;;13.65;7.95;;;;;;;5.49;100.00;99058.13;4128005;28;20763;-49
2023/04/18 03:18:24;;;;;;;9.73;8.77;;;;;;;5.51;100.00;99058.72;4135903;28;20858;-49
2023/04/18 03:20:26;;;;;;;8.52;7.75;;;;;;;5.42;100.00;99065.41;4120992;28;20210;-50
2023/04/18 03:22:27;;;;;;;10.55;9.43;;;;;;;5.39;100.00;99063.06;4126711;28;20261;-51
2023/04/18 03:24:29;;;;;;;9.73;7.75;;;;;;;5.44;100.00;99063.31;4144685;28;20325;-50
2023/04/18 03:26:31;;;;;;;8.43;7.72;;;;;;;5.41;100.00;99066.41;4136089;28;20210;-50
2023/04/18 03:28:33;;;;;;;9.00;8.35;;;;;;;5.32;100.00;99059.50;4136077;28;20229;-50
2023/04/18 03:30:35;;;;;;;10.00;9.10;;;;;;;5.26;100.00;99065.75;4135594;28;20228;-50
2023/04/18 03:32:37;;;;;;;10.18;9.32;;;;;;;5.30;100.00;99058.88;4141818;28;20288;-49
2023/04/18 03:34:39;;;;;;;10.25;9.27;;;;;;;5.31;100.00;99058.69;4128585;28;20210;-50
2023/04/18 03:36:40;;;;;;;8.55;7.78;;;;;;;5.30;100.00;99056.16;4137683;28;20312;-49
2023/04/18 03:38:42;;;;;;;9.07;8.25;;;;;;;5.49;100.00;99056.22;4134390;28;20363;-49
2023/04/18 03:40:45;;;;;;;12.55;11.57;;;;;;;5.44;100.00;99052.44;4138099;28;20689;-50
2023/04/18 03:42:46;;;;;;;13.07;10.60;;;;;;;5.46;100.00;99062.06;4134787;28;20214;-50
2023/04/18 03:44:48;;;;;;;10.43;9.63;;;;;;;5.54;100.00;99052.88;4126632;28;20217;-50
2023/04/18 03:46:50;;;;;;;10.07;9.00;;;;;;;5.60;100.00;99057.50;4131679;28;20201;-51
2023/04/18 03:48:52;;;;;;;10.10;9.20;;;;;;;5.68;100.00;99065.44;4137232;28;20233;-50
2023/04/18 03:50:53;;;;;;;9.55;8.85;;;;;;;5.68;100.00;99054.59;4135990;28;20305;-49
2023/04/18 03:52:55;;;;;;;10.40;9.50;;;;;;;5.75;100.00;99056.28;4132725;28;20233;-50
2023/04/18 03:54:57;;;;;;;11.77;10.07;;;;;;;5.79;100.00;99062.13;4135638;28;20742;-50
2023/04/18 03:56:58;;;;;;;9.95;8.68;;;;;;;5.78;100.00;99049.59;4136400;28;20299;-52
2023/04/18 03:59:00;;;;;;;11.73;9.23;;;;;;;5.81;100.00;99054.63;4125006;28;20293;-49
2023/04/18 04:01:02;;;;;;;10.25;9.45;;;;;;;5.90;100.00;99048.81;4121804;28;20305;-50
2023/04/18 04:03:05;;;;;;;11.52;10.52;;;;;;;5.87;100.00;99051.94;4124346;28;20603;-50
2023/04/18 04:05:07;;;;;;;10.63;9.77;;;;;;;5.90;100.00;99058.84;4144418;28;20552;-50
2023/04/18 04:07:10;;;;;;;9.50;8.57;;;;;;;5.93;100.00;99063.84;4126152;28;20218;-49
2023/04/18 04:09:12;;;;;;;9.98;8.68;;;;;;;5.95;100.00;99059.06;4136173;28;20230;-50
2023/04/18 04:11:14;;;;;;;8.77;8.13;;;;;;;5.97;100.00;99059.69;4138427;28;20215;-50
2023/04/18 04:13:16;;;;;;;9.50;8.60;;;;;;;5.97;100.00;99065.13;4139125;28;20240;-49
2023/04/18 04:15:17;;;;;;;9.55;8.73;;;;;;;6.04;100.00;99071.41;4120100;28;20680;-49
2023/04/18 04:17:19;;;;;;;9.80;8.95;;;;;;;6.02;100.00;99068.06;4136924;28;20694;-50
2023/04/18 04:19:21;;;;;;;9.77;8.95;;;;;;;6.03;100.00;99067.00;4134958;28;20209;-49
2023/04/18 04:21:23;;;;;;;9.98;8.65;;;;;;;6.04;100.00;99072.22;4136707;28;21613;-49
2023/04/18 04:23:25;;;;;;;11.30;10.40;;;;;;;6.07;100.00;99070.97;4137673;28;20228;-49
2023/04/18 04:25:32;;;;;;;11.65;10.70;;;;;;;5.99;100.00;99073.88;4134617;28;20915;-50
2023/04/18 04:27:35;;;;;;;11.60;10.52;;;;;;;6.13;100.00;99070.13;4133035;28;20241;-49
2023/04/18 04:29:38;;;;;;;10.45;9.55;;;;;;;6.08;100.00;99072.66;4125374;28;20229;-49
2023/04/18 04:31:39;;;;;;;12.25;10.27;;;;;;;6.11;100.00;99072.22;4131523;28;20210;-49
2023/04/18 04:33:42;;;;;;;11.85;10.77;;;;;;;6.08;100.00;99064.50;4124522;28;20214;-49
2023/04/18 04:35:45;;;;;;;11.43;10.45;;;;;;;6.11;100.00;99064.09;4135461;28;20337;-49
2023/04/18 04:37:47;;;;;;;11.95;10.80;;;;;;;6.16;100.00;99072.44;4136481;28;20272;-49
2023/04/18 04:39:49;;;;;;;12.13;11.15;;;;;;;6.10;100.00;99067.84;4136421;28;20288;-49
2023/04/18 04:41:52;;;;;;;11.82;10.88;;;;;;;6.20;100.00;99070.97;4137116;28;20759;-49
2023/04/18 04:43:54;;;;;;;13.32;12.32;;;;;;;6.26;100.00;99065.56;4133596;28;20288;-49
2023/04/18 04:45:56;;;;;;;13.38;11.43;;;;;;;6.24;100.00;99072.25;4133389;28;20244;-49
2023/04/18 04:47:58;;;;;;;12.23;11.27;;;;;;;6.26;100.00;99067.41;4127335;28;20257;-50
2023/04/18 04:50:01;;;;;;;11.65;10.65;;;;;;;6.36;100.00;99067.84;4127774;28;20686;-50
2023/04/18 04:52:05;;;;;;;12.77;11.73;;;;;;;6.33;100.00;99065.53;4137484;28;20212;-49
2023/04/18 04:54:07;;;;;;;11.50;10.57;;;;;;;6.34;100.00;99078.06;4119958;28;20210;-50
2023/04/18 04:56:09;;;;;;;12.90;11.80;;;;;;;6.31;100.00;99067.63;4126234;28;20636;-49
2023/04/18 04:58:11;;;;;;;14.63;12.45;;;;;;;6.31;100.00;99073.91;4129176;28;20230;-50
2023/04/18 05:00:19;;;;;;;14.25;9.93;;;;;;;6.32;100.00;99069.31;4144941;28;20248;-49
2023/04/18 05:02:22;;;;;;;12.45;11.40;;;;;;;6.33;100.00;99068.25;4137184;28;20236;-49
2023/04/18 05:04:24;;;;;;;12.57;11.50;;;;;;;6.31;100.00;99081.22;4138457;28;20656;-51
2023/04/18 05:06:26;;;;;;;12.13;10.73;;;;;;;6.41;100.00;99076.19;4125726;28;20908;-50
2023/04/18 05:08:28;;;;;;;12.20;10.32;;;;;;;6.45;100.00;99081.03;4135830;28;20225;-50
2023/04/18 05:10:30;;;;;;;11.98;10.82;;;;;;;6.53;100.00;99071.78;4135883;28;20210;-49
2023/04/18 05:12:31;;;;;;;10.23;9.38;;;;;;;6.42;100.00;99075.16;4125330;28;20298;-49
2023/04/18 05:14:33;;;;;;;11.73;10.82;;;;;;;6.50;100.00;99074.94;4148809;28;20206;-51
2023/04/18 05:16:35;;;;;;;11.73;10.75;;;;;;;6.47;100.00;99075.34;4133140;28;20316;-50
2023/04/18 05:18:39;;;;;;;10.90;10.00;;;;;;;6.49;100.00;99076.81;4119005;28;20234;-50
2023/04/18 05:20:41;;;;;;;12.25;11.18;;;;;;;6.44;100.00;99070.34;4144190;28;20213;-50
2023/04/18 05:22:43;;;;;;;13.25;11.05;;;;;;;6.50;100.00;99077.66;4138140;28;20216;-50
2023/04/18 05:24:45;;;;;;;17.83;11.20;;;;;;;6.53;100.00;99082.66;4130599;28;20206;-50
2023/04/18 05:26:47;;;;;;;14.23;12.38;;;;;;;6.52;100.00;99081.00;4138428;28;20206;-50
2023/04/18 05:28:49;;;;;;;11.70;10.60;;;;;;;6.55;100.00;99086.84;4142818;28;20779;-50
2023/04/18 05:30:51;;;;;;;12.88;11.88;;;;;;;6.57;100.00;99089.38;4128850;28;20214;-50
2023/04/18 05:32:53;;;;;;;12.68;11.60;;;;;;;6.57;100.00;99090.19;4139516;28;20211;-50
2023/04/18 05:34:55;;;;;;;11.90;10.85;;;;;;;6.69;100.00;99087.69;4138588;28;20218;-50
2023/04/18 05:36:57;;;;;;;13.25;11.15;;;;;;;6.68;100.00;99086.03;4138259;28;20279;-50
2023/04/18 05:38:59;;;;;;;13.32;11.15;;;;;;;6.69;100.00;99083.06;4143964;28;20650;-50
2023/04/18 05:41:01;;;;;;;11.57;10.38;;;;;;;6.72;100.00;99095.41;4141325;28;20209;-50
2023/04/18 05:43:03;;;;;;;12.60;11.60;;;;;;;6.77;100.00;99096.44;4112769;28;20577;-50
2023/04/18 05:45:06;;;;;;;12.93;11.80;;;;;;;6.88;100.00;99103.13;4140635;28;20603;-51
2023/04/18 05:47:08;;;;;;;12.88;11.82;;;;;;;6.88;100.00;99103.13;4152700;28;20264;-51
2023/04/18 05:49:10;;;;;;;12.52;11.52;;;;;;;6.90;100.00;99104.56;4128218;28;20229;-50
2023/04/18 05:51:12;;;;;;;13.02;11.95;;;;;;;6.91;100.00;99106.28;4136640;28;20222;-49
2023/04/18 05:53:14;;;;;;;13.30;11.75;;;;;;;6.94;100.00;99104.97;4137929;28;20244;-50
2023/04/18 05:55:18;;;;;;;13.73;12.63;;;;;;;6.99;100.00;99110.63;4142570;28;20671;-51
2023/04/18 05:57:22;;;;;;;12.93;11.82;;;;;;;7.04;100.00;99097.22;4121078;28;20230;-49
2023/04/18 05:59:31;;;;;;;14.60;13.15;;;;;;;6.93;100.00;99106.03;4133311;28;20587;-49
2023/04/18 06:01:35;;;;;;;13.45;12.35;;;;;;;7.03;100.00;99112.72;4137873;28;20200;-50
2023/04/18 06:03:40;;;;;;;14.10;12.65;;;;;;;6.96;100.00;99105.63;4136723;28;20271;-49
2023/04/18 06:05:43;;;;;;;13.68;12.57;;;;;;;6.94;100.00;99108.56;4136163;28;20229;-50
2023/04/18 06:07:53;;;;;;;14.35;13.00;;;;;;;6.97;100.00;99118.19;4137753;28;20259;-49
2023/04/18 06:09:57;;;;;;;13.65;12.55;;;;;;;6.99;100.00;99121.50;4122629;28;20281;-49
2023/04/18 06:12:00;;;;;;;13.05;11.85;;;;;;;6.95;100.00;99112.94;4127815;28;20214;-49
2023/04/18 06:14:02;;;;;;;12.85;11.73;;;;;;;6.94;100.00;99121.31;4139797;28;20252;-50
2023/04/18 06:16:04;;;;;;;13.30;11.98;;;;;;;6.94;100.00;99124.03;4137894;28;20233;-50
2023/04/18 06:18:06;;;;;;;12.57;11.57;;;;;;;6.87;100.00;99126.78;4129366;28;20261;-49
2023/04/18 06:20:09;;;;;;;12.95;11.93;;;;;;;6.82;100.00;99131.19;4146465;28;20205;-50
2023/04/18 06:22:15;;;;;;;14.50;13.07;;;;;;;6.84;100.00;99129.94;4139197;28;20684;-50
2023/04/18 06:24:17;;;;;;;14.07;12.88;;;;;;;6.86;100.00;99132.41;4143639;28;20221;-49
2023/04/18 06:26:19;;;;;;;14.38;13.07;;;;;;;6.88;100.00;99130.34;4139795;28;20213;-49
2023/04/18 06:28:21;;;;;;;14.55;13.27;;;;;;;6.87;100.00;99125.91;4144048;28;20233;-49
2023/04/18 06:30:23;;;;;;;12.77;11.75;;;;;;;6.81;100.00;99134.94;4138724;28;20315;-49
2023/04/18 06:32:28;;;;;;;15.60;14.25;;;;;;;6.78;100.00;99140.81;4131782;28;20240;-50
2023/04/18 06:34:30;;;;;;;20.35;13.52;;;;;;;6.74;100.00;99134.09;4124090;28;20289;-49
2023/04/18 06:36:36;;;;;;;15.13;13.75;;;;;;;6.69;100.00;99136.63;4142940;28;20233;-49
2023/04/18 06:38:41;;;;;;;16.23;14.80;;;;;;;6.80;100.00;99139.53;4141309;28;20267;-49
2023/04/18 06:40:44;;;;;;;13.95;12.75;;;;;;;6.82;100.00;99137.44;4137718;28;20676;-49
2023/04/18 06:42:46;;;;;;;15.10;12.60;;;;;;;6.93;100.00;99144.13;4137892;28;20206;-50
2023/04/18 06:44:48;;;;;;;16.33;14.65;;;;;;;6.97;100.00;99134.50;4128007;28;20213;-49
2023/04/18 06:46:50;;;;;;;17.42;15.93;;;;;;;7.09;100.00;99141.78;4145402;28;20201;-49
2023/04/18 06:48:52;;;;;;;17.35;15.82;;;;;;;7.19;100.00;99144.06;4144078;28;20332;-50
2023/04/18 06:50:59;;;;;;;15.50;14.10;;;;;;;7.29;100.00;99147.19;4137825;28;20206;-49
2023/04/18 06:53:01;;;;;;;16.60;15.30;;;;;;;7.24;100.00;99147.00;4123309;28;20577;-51
2023/04/18 06:55:03;;;;;;;15.77;14.32;;;;;;;7.33;100.00;99146.56;4136364;28;20208;-49
2023/04/18 06:57:06;;;;;;;14.52;13.23;;;;;;;7.36;100.00;99150.75;4142672;28;20225;-49
2023/04/18 06:59:08;;;;;;;14.95;13.65;;;;;;;7.25;100.00;99154.09;4122450;28;20240;-49
2023/04/18 07:01:13;;;;;;;14.93;13.63;;;;;;;7.28;100.00;99154.53;4139460;28;20260;-50
2023/04/18 07:03:15;;;;;;;16.20;14.68;;;;;;;7.33;100.00;99154.72;4137470;28;20663;-50
2023/04/18 07:05:17;;;;;;;16.45;14.95;;;;;;;7.31;100.00;99153.25;4135497;28;20261;-49
2023/04/18 07:07:19;;;;;;;16.08;14.52;;;;;;;7.29;100.00;99155.38;4104313;28;20215;-49
2023/04/18 07:09:21;;;;;;;17.15;15.48;;;;;;;7.28;100.00;99153.69;4136503;28;20280;-49
2023/04/18 07:11:29;;;;;;;72.38;17.60;;;;;;;7.34;100.00;99163.72;4123673;28;20329;-50
2023/04/18 07:13:32;;;;;;;16.88;15.40;;;;;;;7.35;100.00;99154.50;4138095;28;20263;-51
2023/04/18 07:15:34;;;;;;;16.50;15.00;;;;;;;7.28;100.00;99153.69;4121201;28;20206;-50
2023/04/18 07:17:36;;;;;;;15.90;14.27;;;;;;;7.34;100.00;99158.25;4139413;28;20351;-50
2023/04/18 07:19:40;;;;;;;17.50;14.98;;;;;;;7.42;100.00;99155.31;4126324;28;20221;-50
2023/04/18 07:21:44;;;;;;;14.30;13.15;;;;;;;7.55;100.00;99158.00;4127670;28;20680;-50
2023/04/18 07:23:46;;;;;;;15.13;13.82;;;;;;;7.48;100.00;99159.91;4123348;28;20693;-51
2023/04/18 07:25:51;;;;;;;14.80;13.48;;;;;;;7.49;100.00;99158.88;4137520;28;20213;-50
2023/04/18 07:27:54;;;;;;;15.32;13.88;;;;;;;7.51;100.00;99154.03;4126479;28;20309;-51
2023/04/18 07:29:56;;;;;;;17.92;15.23;;;;;;;7.53;100.00;99151.91;4135557;28;20221;-51
2023/04/18 07:31:58;;;;;;;15.38;13.98;;;;;;;7.50;100.00;99152.38;4138547;28;20241;-50
2023/04/18 07:34:00;;;;;;;16.75;14.50;;;;;;;7.55;100.00;99155.28;4143009;28;20263;-49
2023/04/18 07:36:02;;;;;;;14.07;12.93;;;;;;;7.61;100.00;99152.53;4137598;28;20210;-50
2023/04/18 07:38:05;;;;;;;13.80;12.68;;;;;;;7.71;100.00;99154.78;4135662;28;20259;-50
2023/04/18 07:40:07;;;;;;;15.30;13.73;;;;;;;7.83;100.00;99153.06;4135239;28;20218;-50
2023/04/18 07:42:10;;;;;;;21.17;13.98;;;;;;;7.84;100.00;99150.13;4133497;28;20201;-50
2023/04/18 07:44:12;;;;;;;15.35;13.98;;;;;;;7.79;100.00;99158.09;4135470;28;20573;-50
2023/04/18 07:46:15;;;;;;;15.43;14.13;;;;;;;7.90;100.00;99160.13;4142915;28;20213;-51
2023/04/18 07:48:20;;;;;;;14.63;13.20;;;;;;;7.94;100.00;99155.94;4149335;28;20638;-51
2023/04/18 07:50:23;;;;;;;14.52;13.43;;;;;;;7.89;100.00;99163.09;4134115;28;20213;-51
2023/04/18 07:52:25;;;;;;;15.40;14.02;;;;;;;7.92;100.00;99158.03;4143281;28;20225;-51
2023/04/18 07:54:27;;;;;;;32.50;13.68;;;;;;;7.86;100.00;99163.50;4122854;28;20559;-50
2023/04/18 07:56:29;;;;;;;14.65;13.45;;;;;;;8.04;100.00;99155.47;4134599;28;20213;-50
2023/04/18 07:58:35;;;;;;;18.13;14.13;;;;;;;7.84;100.00;99160.19;4140400;28;20236;-49
2023/04/18 08:00:41;;;;;;;15.18;13.82;;;;;;;7.90;100.00;99159.31;4141362;28;20694;-49
2023/04/18 08:02:46;;;;;;;17.23;13.45;;;;;;;7.86;100.00;99150.75;4139961;28;20261;-50
2023/04/18 08:04:48;;;;;;;16.27;14.27;;;;;;;8.01;100.00;99167.63;4141916;28;20273;-50
2023/04/18 08:06:51;;;;;;;15.90;14.70;;;;;;;8.18;100.00;99160.63;4136913;28;20205;-50
2023/04/18 08:08:53;;;;;;;15.35;14.05;;;;;;;8.05;100.00;99168.03;4126862;28;20232;-50
2023/04/18 08:10:58;;;;;;;15.38;14.05;;;;;;;8.02;100.00;99176.66;4141264;28;20220;-50
2023/04/18 08:13:00;;;;;;;16.15;14.35;;;;;;;8.08;100.00;99168.44;4124753;28;20217;-50
2023/04/18 08:15:03;;;;;;;15.75;14.43;;;;;;;8.01;100.00;99169.53;4139438;28;20225;-51
2023/04/18 08:17:05;;;;;;;15.23;13.88;;;;;;;8.13;100.00;99175.94;4135381;28;20330;-50
2023/04/18 08:19:07;;;;;;;13.50;11.55;;;;;;;7.81;100.00;99179.69;4119360;28;20248;-50
2023/04/18 08:21:09;;;;;;;15.30;13.90;;;;;;;7.89;100.00;99174.00;4122557;28;20703;-50
2023/04/18 08:23:11;;;;;;;15.90;14.60;;;;;;;7.79;100.00;99176.31;4125796;28;20210;-50
2023/04/18 08:25:14;;;;;;;15.57;14.18;;;;;;;7.84;100.00;99177.38;4131284;28;20218;-52
2023/04/18 08:27:15;;;;;;;16.00;14.35;;;;;;;7.79;100.00;99184.50;4132643;28;20689;-52
2023/04/18 08:29:17;;;;;;;14.77;13.38;;;;;;;7.79;100.00;99182.63;4131224;28;20233;-50
2023/04/18 08:31:20;;;;;;;15.63;14.32;;;;;;;7.73;100.00;99185.38;4137326;28;20563;-50
2023/04/18 08:33:23;;;;;;;15.73;14.27;;;;;;;7.64;100.00;99187.50;4118811;28;20202;-50
2023/04/18 08:35:25;;;;;;;16.05;14.65;;;;;;;7.59;100.00;99178.28;4131358;28;20214;-51
2023/04/18 08:37:27;;;;;;;16.27;14.68;;;;;;;7.54;100.00;99186.25;4134714;28;20240;-51
2023/04/18 08:39:30;;;;;;;24.38;14.27;;;;;;;7.58;100.00;99198.41;4128720;28;20333;-50
2023/04/18 08:41:36;;;;;;;15.45;14.05;;;;;;;7.59;100.00;99195.47;4116245;28;20238;-50
2023/04/18 08:43:38;;;;;;;20.73;13.43;;;;;;;7.61;100.00;99193.38;4131733;28;20482;-49
2023/04/18 08:45:41;;;;;;;16.77;13.63;;;;;;;7.57;100.00;99191.28;4119414;28;20292;-50
2023/04/18 08:47:43;;;;;;;15.50;13.82;;;;;;;7.57;100.00;99196.75;4131910;28;20256;-50
2023/04/18 08:49:45;;;;;;;15.23;13.73;;;;;;;7.57;100.00;99196.75;4124304;28;20932;-50
2023/04/18 08:51:50;;;;;;;16.13;14.40;;;;;;;7.57;100.00;99196.75;4131967;28;20210;-50
2023/04/18 08:53:53;;;;;;;16.38;14.77;;;;;;;7.64;100.00;99209.31;4125147;28;20214;-49
2023/04/18 08:55:55;;;;;;;15.07;13.55;;;;;;;7.68;100.00;99205.09;4137778;28;20209;-49
2023/04/18 08:57:58;;;;;;;16.95;15.55;;;;;;;7.64;100.00;99195.69;4140302;28;20225;-51
2023/04/18 09:00:00;;;;;;;15.65;14.23;;;;;;;7.69;100.00;99200.47;4138226;28;20205;-56
2023/04/18 09:02:07;;;;;;;13.57;12.48;;;;;;;7.78;100.00;99210.06;4131501;28;20217;-51
2023/04/18 09:04:09;;;;;;;14.75;13.55;;;;;;;7.74;100.00;99203.38;4134572;28;20209;-50
2023/04/18 09:06:17;;;;;;;15.23;13.82;;;;;;;7.69;100.00;99211.38;4121258;28;20576;-51
2023/04/18 09:08:22;;;;;;;14.68;13.48;;;;;;;7.77;100.00;99211.13;4133009;28;20226;-51
2023/04/18 09:10:31;;;;;;;15.75;14.27;;;;;;;7.74;100.00;99203.38;4138483;28;20220;-51
2023/04/18 09:12:48;;;;;;;14.43;12.93;;;;;;;7.81;100.00;99204.22;4133819;28;20264;-50
2023/04/18 09:14:56;;;;;;;15.65;14.35;;;;;;;7.73;100.00;99208.00;4139432;28;20243;-50
2023/04/18 09:16:59;;;;;;;15.65;14.10;;;;;;;7.94;100.00;99204.13;4118913;28;20222;-50
2023/04/18 09:19:11;;;;;;;14.45;12.95;;;;;;;7.87;100.00;99208.78;4101305;28;20239;-50
2023/04/18 09:21:19;;;;;;;16.25;14.82;;;;;;;7.88;100.00;99215.91;4113384;28;20237;-50
2023/04/18 09:23:23;;;;;;;15.57;14.10;;;;;;;7.87;100.00;99212.34;4112556;28;20771;-52
2023/04/18 09:25:28;;;;;;;16.67;14.30;;;;;;;7.83;100.00;99202.91;4131882;28;20296;-50
2023/04/18 09:27:37;;;;;;;14.85;13.45;;;;;;;7.86;100.00;99207.09;4124421;28;20207;-50
2023/04/18 09:29:45;;;;;;;16.45;14.90;;;;;;;7.97;100.00;99204.56;4138905;28;20213;-50
2023/04/18 09:32:00;;;;;;;15.93;14.63;;;;;;;7.96;100.00;99205.59;4149585;28;20283;-50